createdAt,value
2019-04-04T00:00:35.083Z,12.57
2019-04-04T00:01:35.072Z,12.57
2019-04-04T00:02:35.119Z,12.53
2019-04-04T00:03:35.115Z,12.45
2019-04-04T00:04:35.155Z,12.42
2019-04-04T00:05:35.145Z,12.42
2019-04-04T00:07:35.197Z,12.35
2019-04-04T00:08:36.535Z,12.28
2019-04-04T00:09:37.767Z,12.38
2019-04-04T00:10:37.130Z,12.32
2019-04-04T00:11:36.858Z,12.2
2019-04-04T00:12:36.945Z,12.28
2019-04-04T00:13:35.305Z,12.28
2019-04-04T00:14:35.358Z,12.2
2019-04-04T00:15:50.007Z,12.07
2019-04-04T00:16:35.369Z,12.19
2019-04-04T00:17:35.410Z,12.07
2019-04-04T00:18:35.458Z,12.19
2019-04-04T00:19:35.477Z,12.1
2019-04-04T00:20:37.059Z,12.14
2019-04-04T00:21:38.459Z,12.12
2019-04-04T00:22:37.782Z,11.99
2019-04-04T00:23:37.606Z,12.05
2019-04-04T00:24:35.521Z,12.05
2019-04-04T00:25:35.631Z,12.05
2019-04-04T00:26:35.580Z,11.96
2019-04-04T00:27:35.592Z,12.04
2019-04-04T00:28:35.637Z,12.02
2019-04-04T00:29:35.651Z,11.98
2019-04-04T00:30:35.645Z,11.96
2019-04-04T00:31:52.212Z,11.9
2019-04-04T00:32:35.683Z,11.86
2019-04-04T00:33:35.738Z,11.8
2019-04-04T00:34:35.718Z,11.83
2019-04-04T00:35:36.518Z,11.79
2019-04-04T00:36:38.711Z,11.75
2019-04-04T00:37:40.950Z,11.7
2019-04-04T00:38:36.010Z,11.85
2019-04-04T00:39:35.815Z,11.82
2019-04-04T00:41:35.861Z,11.67
2019-04-04T00:42:35.903Z,11.79
2019-04-04T00:44:50.582Z,11.75
2019-04-04T00:45:36.048Z,11.64
2019-04-04T00:46:50.622Z,11.72
2019-04-04T00:47:52.397Z,11.69
2019-04-04T00:48:37.191Z,11.6
2019-04-04T00:49:37.880Z,11.7
2019-04-04T00:50:38.928Z,11.62
2019-04-04T00:51:38.639Z,11.62
2019-04-04T00:52:36.103Z,11.6
2019-04-04T00:53:36.100Z,11.57
2019-04-04T00:54:36.123Z,11.69
2019-04-04T00:55:36.221Z,11.58
2019-04-04T00:56:36.149Z,11.58
2019-04-04T00:57:36.173Z,11.51
2019-04-04T00:59:53.285Z,11.44
2019-04-04T01:00:36.296Z,11.44
2019-04-04T01:01:36.346Z,11.43
2019-04-04T01:02:36.294Z,11.42
2019-04-04T01:03:36.293Z,11.43
2019-04-04T01:04:36.661Z,11.39
2019-04-04T01:05:37.296Z,11.43
2019-04-04T01:06:38.420Z,11.35
2019-04-04T01:07:38.743Z,11.42
2019-04-04T01:08:38.749Z,11.43
2019-04-04T01:09:36.415Z,11.43
2019-04-04T01:10:36.426Z,11.21
2019-04-04T01:11:36.477Z,11.29
2019-04-04T01:12:36.463Z,11.25
2019-04-04T01:13:36.512Z,11.37
2019-04-04T01:14:51.160Z,11.25
2019-04-04T01:15:36.721Z,11.24
2019-04-04T01:16:38.380Z,11.24
2019-04-04T01:17:39.676Z,11.25
2019-04-04T01:18:51.253Z,11.21
2019-04-04T01:19:36.359Z,11.24
2019-04-04T01:20:36.632Z,11.21
2019-04-04T01:21:36.660Z,11.07
2019-04-04T01:22:36.651Z,11.11
2019-04-04T01:23:36.711Z,11.14
2019-04-04T01:24:36.706Z,11.09
2019-04-04T01:25:37.581Z,11.11
2019-04-04T01:26:39.763Z,11.06
2019-04-04T01:27:39.065Z,11.04
2019-04-04T01:28:37.087Z,11.07
2019-04-04T01:29:36.817Z,11.06
2019-04-04T01:30:36.832Z,10.99
2019-04-04T01:31:36.824Z,11.06
2019-04-04T01:32:36.865Z,11.06
2019-04-04T01:33:36.864Z,10.91
2019-04-04T01:34:54.227Z,11.03
2019-04-04T01:35:36.920Z,11.04
2019-04-04T01:36:36.971Z,11.11
2019-04-04T01:37:36.965Z,11
2019-04-04T01:38:36.980Z,11.03
2019-04-04T01:39:36.987Z,10.99
2019-04-04T01:40:38.463Z,11
2019-04-04T01:41:39.226Z,10.92
2019-04-04T01:42:40.326Z,10.88
2019-04-04T01:43:37.976Z,10.89
2019-04-04T01:44:37.085Z,10.85
2019-04-04T01:45:51.756Z,10.88
2019-04-04T01:46:37.125Z,10.89
2019-04-04T01:47:51.807Z,10.88
2019-04-04T01:48:37.160Z,10.85
2019-04-04T01:49:52.465Z,10.85
2019-04-04T01:50:53.362Z,10.84
2019-04-04T01:51:37.203Z,10.89
2019-04-04T01:52:37.393Z,10.82
2019-04-04T01:53:37.240Z,10.85
2019-04-04T01:54:37.622Z,10.84
2019-04-04T01:55:39.564Z,10.74
2019-04-04T01:56:39.416Z,10.67
2019-04-04T01:57:38.871Z,10.68
2019-04-04T01:58:37.342Z,10.71
2019-04-04T01:59:37.363Z,10.68
2019-04-04T02:00:37.390Z,10.64
2019-04-04T02:01:37.506Z,10.73
2019-04-04T02:02:52.475Z,10.71
2019-04-04T02:03:37.444Z,10.64
2019-04-04T02:04:37.475Z,10.64
2019-04-04T02:05:52.146Z,10.47
2019-04-04T02:06:52.146Z,10.53
2019-04-04T02:07:37.532Z,10.55
2019-04-04T02:08:37.520Z,10.48
2019-04-04T02:09:54.106Z,10.51
2019-04-04T02:10:39.623Z,10.44
2019-04-04T02:11:39.984Z,10.41
2019-04-04T02:12:39.145Z,10.33
2019-04-04T02:14:37.667Z,10.4
2019-04-04T02:15:52.320Z,10.41
2019-04-04T02:16:37.705Z,10.41
2019-04-04T02:17:52.899Z,10.4
2019-04-04T02:19:37.842Z,10.34
2019-04-04T02:20:37.767Z,10.33
2019-04-04T02:22:37.802Z,10.34
2019-04-04T02:23:37.834Z,10.38
2019-04-04T02:24:37.829Z,10.29
2019-04-04T02:25:39.491Z,10.32
2019-04-04T02:26:40.685Z,10.25
2019-04-04T02:27:40.150Z,10.32
2019-04-04T02:28:39.838Z,10.27
2019-04-04T02:29:37.967Z,10.15
2019-04-04T02:30:37.977Z,10.27
2019-04-04T02:32:37.744Z,10.26
2019-04-04T02:33:38.094Z,10.2
2019-04-04T02:34:42.573Z,10.15
2019-04-04T02:35:38.136Z,10.15
2019-04-04T02:36:38.091Z,10.05
2019-04-04T02:37:38.089Z,10.12
2019-04-04T02:38:52.797Z,10.17
2019-04-04T02:39:40.645Z,10.02
2019-04-04T02:40:40.742Z,10.08
2019-04-04T02:41:38.184Z,10.01
2019-04-04T02:42:38.166Z,10.04
2019-04-04T02:43:38.220Z,10.07
2019-04-04T02:44:38.216Z,10.02
2019-04-04T02:45:42.654Z,9.99
2019-04-04T02:47:38.289Z,9.97
2019-04-04T02:48:38.278Z,9.94
2019-04-04T02:49:38.343Z,9.91
2019-04-04T02:50:40.486Z,9.99
2019-04-04T02:51:42.693Z,9.94
2019-04-04T02:52:38.501Z,9.94
2019-04-04T02:53:55.416Z,9.9
2019-04-04T02:54:38.413Z,9.97
2019-04-04T02:56:40.864Z,9.79
2019-04-04T02:57:40.938Z,9.91
2019-04-04T02:58:38.522Z,9.83
2019-04-04T02:59:38.474Z,9.83
2019-04-04T03:00:38.528Z,9.93
2019-04-04T03:02:41.202Z,9.86
2019-04-04T03:04:38.583Z,9.86
2019-04-04T03:05:38.616Z,9.71
2019-04-04T03:06:38.630Z,9.76
2019-04-04T03:07:38.658Z,9.84
2019-04-04T03:08:41.594Z,9.83
2019-04-04T03:09:53.359Z,9.84
2019-04-04T03:10:38.697Z,9.81
2019-04-04T03:11:38.745Z,9.83
2019-04-04T03:12:38.729Z,9.69
2019-04-04T03:13:38.770Z,9.69
2019-04-04T03:14:42.221Z,9.74
2019-04-04T03:15:41.213Z,9.72
2019-04-04T03:17:38.840Z,9.68
2019-04-04T03:18:41.823Z,9.68
2019-04-04T03:19:53.537Z,9.68
2019-04-04T03:20:38.904Z,9.65
2019-04-04T03:21:38.890Z,9.6
2019-04-04T03:23:38.945Z,9.64
2019-04-04T03:24:44.702Z,9.68
2019-04-04T03:25:53.637Z,9.6
2019-04-04T03:26:38.973Z,9.64
2019-04-04T03:27:39.007Z,9.57
2019-04-04T03:28:39.015Z,9.58
2019-04-04T03:29:42.332Z,9.61
2019-04-04T03:30:39.140Z,9.61
2019-04-04T03:32:39.104Z,9.57
2019-04-04T03:33:39.150Z,9.5
2019-04-04T03:34:39.169Z,9.61
2019-04-04T03:35:39.164Z,9.5
2019-04-04T03:36:39.171Z,9.6
2019-04-04T03:37:53.881Z,9.56
2019-04-04T03:38:39.198Z,9.5
2019-04-04T03:39:39.250Z,9.46
2019-04-04T03:40:41.797Z,9.43
2019-04-04T03:41:53.924Z,9.46
2019-04-04T03:42:43.725Z,9.48
2019-04-04T03:43:39.327Z,9.46
2019-04-04T03:44:39.305Z,9.5
2019-04-04T03:45:39.336Z,9.36
2019-04-04T03:47:43.145Z,9.33
2019-04-04T03:48:39.407Z,9.33
2019-04-04T03:49:39.396Z,9.35
2019-04-04T03:50:39.490Z,9.4
2019-04-04T03:51:42.057Z,9.39
2019-04-04T03:52:43.106Z,9.33
2019-04-04T03:54:39.484Z,9.32
2019-04-04T03:55:39.503Z,9.4
2019-04-04T03:56:54.196Z,9.36
2019-04-04T03:57:39.549Z,9.29
2019-04-04T03:58:39.620Z,9.28
2019-04-04T03:59:39.583Z,9.31
2019-04-04T04:00:44.237Z,9.36
2019-04-04T04:01:39.639Z,9.35
2019-04-04T04:02:39.648Z,9.28
2019-04-04T04:03:39.660Z,9.23
2019-04-04T04:04:39.698Z,9.05
2019-04-04T04:05:43.364Z,9.13
2019-04-04T04:06:44.179Z,9.18
2019-04-04T04:07:39.742Z,9.17
2019-04-04T04:08:55.090Z,9.05
2019-04-04T04:09:39.516Z,9.13
2019-04-04T04:10:39.814Z,9.13
2019-04-04T04:12:42.555Z,9.23
2019-04-04T04:13:39.863Z,9.2
2019-04-04T04:14:39.861Z,9.24
2019-04-04T04:15:39.892Z,9.23
2019-04-04T04:16:40.934Z,9.15
2019-04-04T04:17:44.986Z,9.18
2019-04-04T04:18:39.928Z,9.23
2019-04-04T04:19:39.950Z,9.15
2019-04-04T04:20:42.384Z,9.18
2019-04-04T04:21:42.658Z,9.17
2019-04-04T04:22:40.025Z,9.24
2019-04-04T04:23:40.023Z,9.11
2019-04-04T04:24:40.053Z,9.13
2019-04-04T04:26:43.461Z,9.26
2019-04-04T04:27:40.127Z,9.21
2019-04-04T04:28:55.994Z,9.2
2019-04-04T04:29:40.151Z,9.21
2019-04-04T04:30:44.321Z,9.26
2019-04-04T04:31:40.155Z,9.2
2019-04-04T04:32:42.135Z,9.2
2019-04-04T04:33:39.955Z,9.21
2019-04-04T04:34:40.205Z,9.17
2019-04-04T04:35:45.741Z,9.2
2019-04-04T04:37:40.263Z,9.14
2019-04-04T04:38:40.309Z,9.15
2019-04-04T04:39:45.754Z,9.15
2019-04-04T04:40:54.994Z,9.14
2019-04-04T04:41:40.373Z,9.14
2019-04-04T04:42:40.367Z,9.14
2019-04-04T04:43:40.424Z,9.17
2019-04-04T04:44:55.073Z,9.18
2019-04-04T04:45:41.648Z,9.08
2019-04-04T04:46:40.441Z,9.04
2019-04-04T04:47:40.512Z,9.15
2019-04-04T04:48:40.453Z,9.11
2019-04-04T04:49:41.172Z,9.18
2019-04-04T04:50:42.766Z,9.26
2019-04-04T04:51:43.075Z,9.21
2019-04-04T04:52:40.555Z,9.1
2019-04-04T04:53:40.540Z,9.2
2019-04-04T04:54:40.605Z,9.2
2019-04-04T04:55:40.575Z,9.21
2019-04-04T04:56:40.641Z,9.26
2019-04-04T04:57:42.893Z,9.28
2019-04-04T04:58:44.316Z,9.29
2019-04-04T04:59:40.651Z,9.26
2019-04-04T05:01:43.077Z,9.33
2019-04-04T05:02:40.736Z,9.36
2019-04-04T05:03:40.730Z,9.38
2019-04-04T05:04:40.775Z,9.28
2019-04-04T05:06:41.205Z,9.33
2019-04-04T05:07:43.404Z,9.39
2019-04-04T05:08:43.256Z,9.35
2019-04-04T05:09:40.856Z,9.46
2019-04-04T05:11:40.896Z,9.48
2019-04-04T05:12:40.881Z,9.48
2019-04-04T05:13:40.653Z,9.64
2019-04-04T05:14:40.948Z,9.79
2019-04-04T05:15:40.949Z,9.99
2019-04-04T05:16:55.631Z,10.15
2019-04-04T05:17:44.287Z,10.27
2019-04-04T05:18:41.017Z,10.41
2019-04-04T05:19:41.006Z,10.56
2019-04-04T05:20:41.029Z,10.78
2019-04-04T05:22:44.694Z,10.76
2019-04-04T05:23:41.136Z,10.78
2019-04-04T05:24:41.118Z,10.82
2019-04-04T05:25:56.913Z,10.88
2019-04-04T05:26:43.435Z,10.88
2019-04-04T05:27:42.547Z,10.79
2019-04-04T05:28:44.315Z,10.91
2019-04-04T05:29:42.886Z,10.96
2019-04-04T05:30:41.256Z,11.21
2019-04-04T05:31:55.950Z,11.47
2019-04-04T05:32:41.286Z,11.73
2019-04-04T05:33:41.326Z,11.67
2019-04-04T05:34:41.106Z,11.54
2019-04-04T05:35:42.732Z,11.57
2019-04-04T05:36:41.888Z,11.72
2019-04-04T05:37:43.417Z,11.67
2019-04-04T05:38:42.874Z,11.76
2019-04-04T05:39:41.441Z,11.73
2019-04-04T05:40:41.450Z,11.62
2019-04-04T05:41:42.334Z,11.69
2019-04-04T05:42:41.524Z,11.67
2019-04-04T05:43:42.854Z,11.7
2019-04-04T05:44:43.936Z,11.83
2019-04-04T05:46:56.235Z,11.73
2019-04-04T05:47:41.623Z,11.98
2019-04-04T05:48:41.659Z,11.98
2019-04-04T05:49:43.017Z,12.1
2019-04-04T05:50:43.505Z,12.19
2019-04-04T05:51:41.722Z,12.37
2019-04-04T05:53:41.730Z,12.47
2019-04-04T05:54:43.841Z,12.52
2019-04-04T05:56:44.338Z,12.72
2019-04-04T05:57:41.860Z,13
2019-04-04T05:58:41.866Z,13.22
2019-04-04T05:59:44.788Z,13.39
2019-04-04T06:00:41.894Z,13.6
2019-04-04T06:01:41.884Z,13.87
2019-04-04T06:02:45.281Z,13.89
2019-04-04T06:03:56.609Z,14.06
2019-04-04T06:04:42.018Z,14.07
2019-04-04T06:05:42.005Z,14.17
2019-04-04T06:06:42.011Z,14.25
2019-04-04T06:07:42.128Z,14.32
2019-04-04T06:08:47.859Z,14.46
2019-04-04T06:09:46.791Z,14.51
2019-04-04T06:10:42.135Z,14.62
2019-04-04T06:11:42.143Z,14.83
2019-04-04T06:12:42.490Z,14.88
2019-04-04T06:13:42.192Z,14.88
2019-04-04T06:14:42.232Z,14.73
2019-04-04T06:15:56.889Z,14.73
2019-04-04T06:16:56.932Z,15.06
2019-04-04T06:17:44.562Z,15.17
2019-04-04T06:19:57.001Z,15.56
2019-04-04T06:20:42.371Z,15.53
2019-04-04T06:21:42.389Z,15.62
2019-04-04T06:22:42.432Z,15.68
2019-04-04T06:23:42.529Z,15.83
2019-04-04T06:24:42.476Z,15.96
2019-04-04T06:25:42.482Z,16.01
2019-04-04T06:26:43.278Z,16.11
2019-04-04T06:27:44.682Z,16.17
2019-04-04T06:28:44.183Z,16.21
2019-04-04T06:29:57.258Z,16.25
2019-04-04T06:30:48.416Z,16.12
2019-04-04T06:31:59.847Z,16.46
2019-04-04T06:32:43.844Z,16.49
2019-04-04T06:34:46.538Z,16.67
2019-04-04T06:35:57.418Z,16.93
2019-04-04T06:36:42.816Z,16.81
2019-04-04T06:37:45.823Z,16.94
2019-04-04T06:38:42.856Z,17.18
2019-04-04T06:39:58.771Z,17.43
2019-04-04T06:40:43.035Z,17.21
2019-04-04T06:41:42.957Z,17.23
2019-04-04T06:42:42.981Z,17.33
2019-04-04T06:43:46.274Z,17.54
2019-04-04T06:44:46.272Z,17.63
2019-04-04T06:45:46.126Z,17.63
2019-04-04T06:46:43.097Z,17.58
2019-04-04T06:47:43.121Z,17.7
2019-04-04T06:48:43.142Z,17.89
2019-04-04T06:49:45.701Z,18.1
2019-04-04T06:50:46.193Z,18.18
2019-04-04T06:51:57.897Z,17.86
2019-04-04T06:52:43.246Z,17.64
2019-04-04T06:53:43.290Z,17.84
2019-04-04T06:54:43.308Z,17.95
2019-04-04T06:55:45.152Z,17.52
2019-04-04T06:56:59.216Z,17.56
2019-04-04T06:57:43.446Z,17.56
2019-04-04T06:58:45.410Z,17.55
2019-04-04T06:59:46.295Z,17.99
2019-04-04T07:00:51.158Z,17.77
2019-04-04T07:01:43.511Z,17.93
2019-04-04T07:02:43.556Z,18.32
2019-04-04T07:03:59.398Z,18.25
2019-04-04T07:04:43.639Z,18.27
2019-04-04T07:05:43.800Z,18.29
2019-04-04T07:06:59.059Z,18.11
2019-04-04T07:07:46.399Z,18.26
2019-04-04T07:08:45.090Z,18.18
2019-04-04T07:09:43.752Z,18.32
2019-04-04T07:10:43.804Z,18.12
2019-04-04T07:11:43.838Z,18.2
2019-04-04T07:12:43.855Z,18.25
2019-04-04T07:13:47.584Z,18.27
2019-04-04T07:14:52.032Z,18.41
2019-04-04T07:16:08.660Z,18.37
2019-04-04T07:16:44.073Z,18.44
2019-04-04T07:17:45.770Z,18.5
2019-04-04T07:18:47.582Z,18.51
2019-04-04T07:19:58.711Z,18.5
2019-04-04T07:20:45.933Z,18.44
2019-04-04T07:21:44.121Z,18.47
2019-04-04T07:22:44.162Z,18.55
2019-04-04T07:23:46.696Z,18.37
2019-04-04T07:24:44.195Z,18.67
2019-04-04T07:25:45.034Z,18.47
2019-04-04T07:26:47.649Z,18.51
2019-04-04T07:27:45.282Z,18.69
2019-04-04T07:28:44.346Z,18.78
2019-04-04T07:29:44.348Z,18.91
2019-04-04T07:30:44.407Z,19
2019-04-04T07:31:44.426Z,18.91
2019-04-04T07:32:46.468Z,18.69
2019-04-04T07:33:47.596Z,18.66
2019-04-04T07:34:59.161Z,18.82
2019-04-04T07:35:59.222Z,18.81
2019-04-04T07:36:44.554Z,19.02
2019-04-04T07:37:44.616Z,19.02
2019-04-04T07:39:02.539Z,19.4
2019-04-04T07:39:44.668Z,19.55
2019-04-04T07:40:44.675Z,19.63
2019-04-04T07:41:47.458Z,19.78
2019-04-04T07:42:47.121Z,19.83
2019-04-04T07:43:44.797Z,19.98
2019-04-04T07:44:44.796Z,20.02
2019-04-04T07:45:44.901Z,19.81
2019-04-04T07:46:48.202Z,19.63
2019-04-04T07:48:44.943Z,19.14
2019-04-04T07:49:45.215Z,19.16
2019-04-04T07:50:59.641Z,19.14
2019-04-04T07:51:45.014Z,19.13
2019-04-04T07:52:59.718Z,19.33
2019-04-04T07:54:59.776Z,19.33
2019-04-04T07:55:47.650Z,19.22
2019-04-04T07:56:48.896Z,19.23
2019-04-04T07:57:45.194Z,19.31
2019-04-04T07:59:45.272Z,19.54
2019-04-04T08:00:45.267Z,19.68
2019-04-04T08:01:55.784Z,19.73
2019-04-04T08:02:45.100Z,19.56
2019-04-04T08:03:45.389Z,19.77
2019-04-04T08:04:45.388Z,19.94
2019-04-04T08:05:45.413Z,20.2
2019-04-04T08:07:00.125Z,20.55
2019-04-04T08:07:45.227Z,20.48
2019-04-04T08:08:45.518Z,20.06
2019-04-04T08:09:45.569Z,19.74
2019-04-04T08:11:00.227Z,19.44
2019-04-04T08:11:45.634Z,19.48
2019-04-04T08:13:45.652Z,19.46
2019-04-04T08:14:45.685Z,19.46
2019-04-04T08:15:45.450Z,19.39
2019-04-04T08:16:45.757Z,19.21
2019-04-04T08:17:45.764Z,19.14
2019-04-04T08:18:45.811Z,18.88
2019-04-04T08:19:45.834Z,18.9
2019-04-04T08:20:45.853Z,18.9
2019-04-04T08:21:45.862Z,18.85
2019-04-04T08:22:45.926Z,19.13
2019-04-04T08:24:00.603Z,19.33
2019-04-04T08:24:45.953Z,19.28
2019-04-04T08:25:46.003Z,19.68
2019-04-04T08:27:00.666Z,19.96
2019-04-04T08:27:46.063Z,19.99
2019-04-04T08:28:46.064Z,20.28
2019-04-04T08:29:46.080Z,20.11
2019-04-04T08:30:46.137Z,20.01
2019-04-04T08:31:46.157Z,20.47
2019-04-04T08:32:46.193Z,20.42
2019-04-04T08:33:46.256Z,20.59
2019-04-04T08:34:46.250Z,20.58
2019-04-04T08:37:00.960Z,21.24
2019-04-04T08:37:46.311Z,21.25
2019-04-04T08:38:46.360Z,21.35
2019-04-04T08:40:01.020Z,21.5
2019-04-04T08:42:01.094Z,21.69
2019-04-04T08:42:46.450Z,21.75
2019-04-04T08:43:46.504Z,21.91
2019-04-04T08:44:46.496Z,21.65
2019-04-04T08:45:46.555Z,21.65
2019-04-04T08:46:46.550Z,21.72
2019-04-04T08:47:46.594Z,21.61
2019-04-04T08:48:46.605Z,21.59
2019-04-04T08:49:46.666Z,21.79
2019-04-04T08:51:46.696Z,22
2019-04-04T08:52:46.795Z,22.25
2019-04-04T08:54:01.417Z,22.3
2019-04-04T08:54:46.785Z,22.54
2019-04-04T08:55:46.826Z,22.54
2019-04-04T08:56:46.867Z,22.42
2019-04-04T08:58:01.546Z,22.27
2019-04-04T08:58:46.893Z,22.35
2019-04-04T08:59:46.943Z,22.25
2019-04-04T09:00:46.952Z,22.62
2019-04-04T09:01:47.047Z,22.55
2019-04-04T09:03:47.063Z,22.55
2019-04-04T09:04:47.110Z,22.58
2019-04-04T09:06:47.116Z,22.82
2019-04-04T09:07:47.223Z,22.67
2019-04-04T09:09:47.542Z,22.75
2019-04-04T09:10:47.228Z,22.85
2019-04-04T09:11:47.270Z,22.92
2019-04-04T09:12:47.518Z,22.91
2019-04-04T09:14:01.983Z,22.98
2019-04-04T09:14:47.386Z,22.76
2019-04-04T09:15:47.371Z,22.88
2019-04-04T09:16:47.433Z,22.7
2019-04-04T09:17:47.430Z,22.18
2019-04-04T09:18:47.472Z,22
2019-04-04T09:21:47.546Z,22.24
2019-04-04T09:22:47.599Z,22.61
2019-04-04T09:24:02.264Z,22.83
2019-04-04T09:24:47.653Z,22.77
2019-04-04T09:25:47.681Z,22.97
2019-04-04T09:26:47.710Z,22.79
2019-04-04T09:27:47.716Z,23.09
2019-04-04T09:28:47.735Z,22.98
2019-04-04T09:30:02.456Z,22.98
2019-04-04T09:30:47.798Z,23.07
2019-04-04T09:31:47.845Z,23.09
2019-04-04T09:32:47.878Z,23.15
2019-04-04T09:33:47.876Z,22.97
2019-04-04T09:34:47.943Z,22.8
2019-04-04T09:35:47.964Z,22.21
2019-04-04T09:36:47.977Z,22.17
2019-04-04T09:37:47.997Z,22.39
2019-04-04T09:38:48.020Z,22.51
2019-04-04T09:39:48.072Z,22.43
2019-04-04T09:40:48.096Z,22.42
2019-04-04T09:41:48.134Z,22.57
2019-04-04T09:42:48.126Z,22.64
2019-04-04T09:44:05.790Z,22.88
2019-04-04T09:44:48.190Z,22.9
2019-04-04T09:46:02.877Z,22.72
2019-04-04T09:46:48.267Z,22.86
2019-04-04T09:48:48.325Z,23.05
2019-04-04T09:49:48.336Z,23.12
2019-04-04T09:50:48.388Z,23.28
2019-04-04T09:51:48.416Z,23.04
2019-04-04T09:52:48.168Z,23.07
2019-04-04T09:53:57.968Z,23.05
2019-04-04T09:55:48.522Z,23.01
2019-04-04T09:56:48.527Z,22.88
2019-04-04T09:57:48.573Z,22.91
2019-04-04T09:58:48.584Z,22.51
2019-04-04T09:59:48.699Z,22.47
2019-04-04T10:00:48.649Z,22.8
2019-04-04T10:02:03.319Z,22.67
2019-04-04T10:02:48.686Z,22.76
2019-04-04T10:03:48.735Z,22.7
2019-04-04T10:04:48.736Z,22.51
2019-04-04T10:05:48.793Z,22.18
2019-04-04T10:06:48.801Z,22.02
2019-04-04T10:08:03.508Z,21.77
2019-04-04T10:08:48.600Z,21.99
2019-04-04T10:09:48.882Z,22.25
2019-04-04T10:10:48.923Z,22.06
2019-04-04T10:11:48.954Z,22.02
2019-04-04T10:12:48.994Z,21.99
2019-04-04T10:13:48.980Z,22.02
2019-04-04T10:15:49.030Z,22.31
2019-04-04T10:17:03.730Z,22.1
2019-04-04T10:18:49.152Z,22.12
2019-04-04T10:19:49.172Z,21.88
2019-04-04T10:20:49.166Z,21.91
2019-04-04T10:21:49.231Z,21.96
2019-04-04T10:22:48.976Z,21.79
2019-04-04T10:23:49.262Z,21.74
2019-04-04T10:24:49.304Z,21.54
2019-04-04T10:26:03.973Z,21.38
2019-04-04T10:26:49.338Z,21.59
2019-04-04T10:27:49.383Z,21.52
2019-04-04T10:28:49.488Z,21.52
2019-04-04T10:29:49.434Z,21.49
2019-04-04T10:30:49.447Z,21.24
2019-04-04T10:31:49.508Z,21.13
2019-04-04T10:32:49.487Z,21.04
2019-04-04T10:34:04.187Z,20.87
2019-04-04T10:34:49.571Z,20.79
2019-04-04T10:35:49.570Z,20.77
2019-04-04T10:36:49.623Z,20.85
2019-04-04T10:37:49.633Z,20.64
2019-04-04T10:38:50.042Z,20.51
2019-04-04T10:39:49.670Z,20.59
2019-04-04T10:41:49.800Z,20.51
2019-04-04T10:42:49.776Z,20.62
2019-04-04T10:43:49.822Z,20.66
2019-04-04T10:44:49.801Z,20.67
2019-04-04T10:46:04.509Z,20.85
2019-04-04T10:46:49.849Z,20.92
2019-04-04T10:47:49.880Z,20.88
2019-04-04T10:49:04.581Z,21.19
2019-04-04T10:49:49.946Z,21.34
2019-04-04T10:50:49.982Z,21.21
2019-04-04T10:51:49.979Z,21.1
2019-04-04T10:52:50.029Z,21.16
2019-04-04T10:53:50.044Z,21.34
2019-04-04T10:54:50.074Z,21.28
2019-04-04T10:55:50.107Z,21.29
2019-04-04T10:56:50.102Z,21.24
2019-04-04T10:57:50.137Z,20.91
2019-04-04T10:58:50.222Z,20.8
2019-04-04T10:59:50.208Z,20.85
2019-04-04T11:01:04.889Z,20.88
2019-04-04T11:01:50.230Z,20.95
2019-04-04T11:02:50.290Z,20.94
2019-04-04T11:03:50.280Z,20.97
2019-04-04T11:05:04.973Z,21.31
2019-04-04T11:05:50.342Z,21.35
2019-04-04T11:06:50.390Z,21.32
2019-04-04T11:07:50.380Z,21.4
2019-04-04T11:08:50.682Z,21.44
2019-04-04T11:09:50.465Z,21.35
2019-04-04T11:10:50.484Z,21.37
2019-04-04T11:11:50.500Z,21.43
2019-04-04T11:12:50.537Z,21.38
2019-04-04T11:13:50.531Z,21.43
2019-04-04T11:14:50.556Z,21.35
2019-04-04T11:15:50.638Z,21.25
2019-04-04T11:16:50.621Z,21.1
2019-04-04T11:17:50.669Z,20.91
2019-04-04T11:18:50.657Z,20.7
2019-04-04T11:19:50.710Z,20.76
2019-04-04T11:21:05.368Z,20.77
2019-04-04T11:21:50.753Z,20.79
2019-04-04T11:22:50.774Z,20.7
2019-04-04T11:23:50.784Z,20.7
2019-04-04T11:24:50.799Z,20.5
2019-04-04T11:25:50.853Z,20.5
2019-04-04T11:26:50.865Z,20.69
2019-04-04T11:27:50.907Z,20.72
2019-04-04T11:28:50.899Z,20.62
2019-04-04T11:29:50.950Z,20.72
2019-04-04T11:30:50.948Z,20.69
2019-04-04T11:32:53.824Z,20.85
2019-04-04T11:33:51.046Z,20.89
2019-04-04T11:34:58.066Z,21.21
2019-04-04T11:35:51.069Z,21.25
2019-04-04T11:37:05.781Z,21.24
2019-04-04T11:37:51.118Z,21.29
2019-04-04T11:38:51.158Z,21.17
2019-04-04T11:39:59.810Z,21.21
2019-04-04T11:40:51.210Z,21.13
2019-04-04T11:41:51.246Z,21.19
2019-04-04T11:43:05.911Z,21.06
2019-04-04T11:43:51.295Z,21.1
2019-04-04T11:44:51.291Z,20.92
2019-04-04T11:45:51.326Z,20.97
2019-04-04T11:46:51.351Z,21.1
2019-04-04T11:47:51.408Z,21.16
2019-04-04T11:48:51.387Z,21.24
2019-04-04T11:49:51.189Z,21.31
2019-04-04T11:50:51.447Z,21.27
2019-04-04T11:52:06.144Z,21.24
2019-04-04T11:52:51.498Z,21.32
2019-04-04T11:53:51.526Z,21.32
2019-04-04T11:54:51.549Z,21.38
2019-04-04T11:55:51.557Z,21.43
2019-04-04T11:56:51.619Z,21.35
2019-04-04T11:58:51.660Z,21.4
2019-04-04T11:59:51.678Z,21.38
2019-04-04T12:00:51.703Z,21.37
2019-04-04T12:02:51.732Z,21.25
2019-04-04T12:03:51.788Z,21.09
2019-04-04T12:04:51.777Z,20.92
2019-04-04T12:05:51.889Z,20.94
2019-04-04T12:07:06.503Z,21.22
2019-04-04T12:07:51.866Z,21.27
2019-04-04T12:08:51.879Z,21.32
2019-04-04T12:09:51.914Z,21.38
2019-04-04T12:11:51.990Z,21.44
2019-04-04T12:12:52.010Z,21.38
2019-04-04T12:13:53.098Z,21.42
2019-04-04T12:14:52.052Z,21.38
2019-04-04T12:15:52.047Z,21.37
2019-04-04T12:16:52.110Z,21.49
2019-04-04T12:17:52.098Z,21.43
2019-04-04T12:18:52.138Z,21.4
2019-04-04T12:19:52.142Z,21.31
2019-04-04T12:20:52.207Z,21.16
2019-04-04T12:21:52.194Z,21.21
2019-04-04T12:22:52.247Z,21.19
2019-04-04T12:24:06.906Z,21.19
2019-04-04T12:24:52.350Z,21.21
2019-04-04T12:25:52.286Z,21.27
2019-04-04T12:26:52.415Z,21.16
2019-04-04T12:27:52.359Z,21.1
2019-04-04T12:28:52.403Z,21.21
2019-04-04T12:29:52.413Z,21.25
2019-04-04T12:30:52.425Z,21.04
2019-04-04T12:31:52.468Z,21.06
2019-04-04T12:32:52.460Z,20.92
2019-04-04T12:33:52.486Z,20.97
2019-04-04T12:35:54.894Z,20.91
2019-04-04T12:36:52.588Z,21.03
2019-04-04T12:37:52.583Z,21.13
2019-04-04T12:39:07.286Z,21.21
2019-04-04T12:40:19.295Z,21.16
2019-04-04T12:40:52.651Z,21.19
2019-04-04T12:41:52.705Z,21.17
2019-04-04T12:42:52.702Z,21.19
2019-04-04T12:43:52.738Z,21.06
2019-04-04T12:44:52.766Z,21.09
2019-04-04T12:45:52.806Z,21.13
2019-04-04T12:46:52.700Z,21.29
2019-04-04T12:47:52.852Z,21.4
2019-04-04T12:48:52.859Z,21.49
2019-04-04T12:49:52.868Z,21.62
2019-04-04T12:50:53.429Z,21.52
2019-04-04T12:52:53.051Z,21.68
2019-04-04T12:53:52.992Z,21.71
2019-04-04T12:54:52.988Z,21.74
2019-04-04T12:56:07.702Z,21.69
2019-04-04T12:56:53.036Z,21.77
2019-04-04T12:58:53.116Z,21.96
2019-04-04T12:59:53.126Z,22.2
2019-04-04T13:00:53.178Z,22.27
2019-04-04T13:01:53.167Z,22.25
2019-04-04T13:02:53.226Z,22.37
2019-04-04T13:04:53.245Z,22.2
2019-04-04T13:05:53.259Z,22.2
2019-04-04T13:06:53.310Z,22.17
2019-04-04T13:07:53.328Z,22.18
2019-04-04T13:08:53.401Z,22.09
2019-04-04T13:09:53.360Z,22.14
2019-04-04T13:10:53.408Z,22.1
2019-04-04T13:12:08.069Z,22
2019-04-04T13:13:08.107Z,21.98
2019-04-04T13:13:53.451Z,22.02
2019-04-04T13:14:53.496Z,22.06
2019-04-04T13:16:53.551Z,21.69
2019-04-04T13:17:53.579Z,21.79
2019-04-04T13:18:53.587Z,21.98
2019-04-04T13:20:53.618Z,22.05
2019-04-04T13:21:53.658Z,22.07
2019-04-04T13:23:08.335Z,22.1
2019-04-04T13:23:53.808Z,22.09
2019-04-04T13:25:53.742Z,22.12
2019-04-04T13:27:08.545Z,22.09
2019-04-04T13:28:08.499Z,22.09
2019-04-04T13:28:53.816Z,22.07
2019-04-04T13:29:53.877Z,22.09
2019-04-04T13:30:53.870Z,22.14
2019-04-04T13:31:53.919Z,22.06
2019-04-04T13:32:53.927Z,22.09
2019-04-04T13:33:53.965Z,22.07
2019-04-04T13:35:07.430Z,22.14
2019-04-04T13:35:53.989Z,21.98
2019-04-04T13:36:54.042Z,22.02
2019-04-04T13:37:54.083Z,21.96
2019-04-04T13:38:55.148Z,22.02
2019-04-04T13:39:54.118Z,22
2019-04-04T13:40:54.115Z,22.09
2019-04-04T13:41:54.172Z,22.12
2019-04-04T13:42:57.647Z,22.09
2019-04-04T13:43:56.590Z,22.12
2019-04-04T13:44:57.297Z,22.18
2019-04-04T13:45:54.234Z,22.3
2019-04-04T13:46:54.281Z,22.27
2019-04-04T13:47:54.307Z,22.25
2019-04-04T13:48:54.337Z,22.24
2019-04-04T13:49:54.425Z,22.1
2019-04-04T13:50:54.381Z,22.07
2019-04-04T13:51:57.722Z,22.09
2019-04-04T13:52:54.418Z,22.07
2019-04-04T13:53:54.192Z,22
2019-04-04T13:54:55.895Z,22.05
2019-04-04T13:55:54.483Z,22.12
2019-04-04T13:56:54.522Z,22.15
2019-04-04T13:57:54.549Z,22.07